createdAt,value
2023-12-16T00:00:36.209Z,86.71
2023-12-16T00:03:24.421Z,86.62
2023-12-16T00:05:53.429Z,86.56
2023-12-16T00:08:22.610Z,86.53
2023-12-16T00:10:54.588Z,86.50
2023-12-16T00:13:24.707Z,86.51
2023-12-16T00:15:53.049Z,86.52
2023-12-16T00:18:21.327Z,86.55
2023-12-16T00:20:49.964Z,86.58
2023-12-16T00:23:18.033Z,86.62
2023-12-16T00:25:46.106Z,86.67
2023-12-16T00:28:14.333Z,86.72
2023-12-16T00:30:42.781Z,86.75
2023-12-16T00:33:10.926Z,86.80
2023-12-16T00:35:39.242Z,86.85
2023-12-16T00:38:07.423Z,86.88
2023-12-16T00:40:35.512Z,86.93
2023-12-16T00:43:05.198Z,86.96
2023-12-16T00:45:33.327Z,86.98
2023-12-16T00:48:02.071Z,87.02
2023-12-16T00:50:30.282Z,87.02
2023-12-16T00:52:58.429Z,87.03
2023-12-16T00:55:26.879Z,87.05
2023-12-16T00:57:55.185Z,87.04
2023-12-16T01:00:23.260Z,87.04
2023-12-16T01:02:51.502Z,87.06
2023-12-16T01:05:19.742Z,87.04
2023-12-16T01:07:48.113Z,87.04
2023-12-16T01:10:16.552Z,87.03
2023-12-16T01:12:47.272Z,87.02
2023-12-16T01:15:16.171Z,87.00
2023-12-16T01:17:44.457Z,87.01
2023-12-16T01:20:12.573Z,87.02
2023-12-16T01:22:40.666Z,87.03
2023-12-16T01:25:08.997Z,87.04
2023-12-16T01:27:37.517Z,87.05
2023-12-16T01:30:07.953Z,87.09
2023-12-16T01:32:36.150Z,87.13
2023-12-16T01:35:04.811Z,87.15
2023-12-16T01:37:33.054Z,87.17
2023-12-16T01:40:01.754Z,87.17
2023-12-16T01:42:30.044Z,87.16
2023-12-16T01:44:58.811Z,87.13
2023-12-16T01:47:28.371Z,87.09
2023-12-16T01:49:56.571Z,87.04
2023-12-16T01:52:25.325Z,87.01
2023-12-16T01:54:53.907Z,86.95
2023-12-16T01:57:22.245Z,86.90
2023-12-16T01:59:50.820Z,86.89
2023-12-16T02:02:20.113Z,86.89
2023-12-16T02:04:49.441Z,86.86
2023-12-16T02:07:17.573Z,86.83
2023-12-16T02:09:45.674Z,86.83
2023-12-16T02:12:13.809Z,86.82
2023-12-16T02:14:42.081Z,86.82
2023-12-16T02:17:10.234Z,86.79
2023-12-16T02:19:39.739Z,86.74
2023-12-16T02:22:08.062Z,86.68
2023-12-16T02:24:38.345Z,86.54
2023-12-16T02:27:06.433Z,86.44
2023-12-16T02:29:34.517Z,86.37
2023-12-16T02:32:03.468Z,86.26
2023-12-16T02:34:31.596Z,86.17
2023-12-16T02:37:18.451Z,86.12
2023-12-16T02:39:46.612Z,86.10
2023-12-16T02:42:14.765Z,86.09
2023-12-16T02:44:42.840Z,86.13
2023-12-16T02:47:10.883Z,86.15
2023-12-16T02:49:39.191Z,86.15
2023-12-16T02:52:07.695Z,86.17
2023-12-16T02:54:35.910Z,86.15
2023-12-16T02:57:04.432Z,86.14
2023-12-16T02:59:32.503Z,86.15
2023-12-16T03:02:00.573Z,86.17
2023-12-16T03:04:28.820Z,86.22
2023-12-16T03:06:57.025Z,86.27
2023-12-16T03:09:25.584Z,86.35
2023-12-16T03:11:54.101Z,86.44
2023-12-16T03:14:22.361Z,86.46
2023-12-16T03:16:50.695Z,86.52
2023-12-16T03:19:18.822Z,86.56
2023-12-16T03:21:46.903Z,86.61
2023-12-16T03:24:16.275Z,86.62
2023-12-16T03:26:44.774Z,86.63
2023-12-16T03:29:13.770Z,86.62
2023-12-16T03:31:41.950Z,86.57
2023-12-16T03:34:10.344Z,86.55
2023-12-16T03:36:38.516Z,86.50
2023-12-16T03:39:06.576Z,86.46
2023-12-16T03:41:35.468Z,86.41
2023-12-16T03:44:03.578Z,86.30
2023-12-16T03:46:31.955Z,86.13
2023-12-16T03:49:00.162Z,86.12
2023-12-16T03:51:28.317Z,86.14
2023-12-16T03:53:56.403Z,86.16
2023-12-16T03:56:24.578Z,86.22
2023-12-16T03:58:52.975Z,86.20
2023-12-16T04:01:21.312Z,86.08
2023-12-16T04:03:49.708Z,85.97
2023-12-16T04:06:17.985Z,85.96
2023-12-16T04:08:46.126Z,85.94
2023-12-16T04:11:14.158Z,85.89
2023-12-16T04:13:42.206Z,85.78
2023-12-16T04:16:10.508Z,85.69
2023-12-16T04:18:38.797Z,85.60
2023-12-16T04:21:08.557Z,85.50
2023-12-16T04:23:37.050Z,85.47
2023-12-16T04:26:08.300Z,85.40
2023-12-16T04:28:37.697Z,85.14
2023-12-16T04:31:06.076Z,85.06
2023-12-16T04:33:34.561Z,85.02
2023-12-16T04:36:02.735Z,84.95
2023-12-16T04:38:30.966Z,84.78
2023-12-16T04:40:59.172Z,84.68
2023-12-16T04:43:27.453Z,84.66
2023-12-16T04:45:55.725Z,84.68
2023-12-16T04:48:23.853Z,84.59
2023-12-16T04:50:52.029Z,84.53
2023-12-16T04:53:20.158Z,84.50
2023-12-16T04:55:50.453Z,84.41
2023-12-16T04:58:19.913Z,84.25
2023-12-16T05:00:48.114Z,84.17
2023-12-16T05:03:17.666Z,84.04
2023-12-16T05:05:45.804Z,83.98
2023-12-16T05:08:15.672Z,84.00
2023-12-16T05:10:47.198Z,83.98
2023-12-16T05:13:18.278Z,83.93
2023-12-16T05:15:46.500Z,83.88
2023-12-16T05:18:14.851Z,83.92
2023-12-16T05:20:43.092Z,83.91
2023-12-16T05:23:11.319Z,83.94
2023-12-16T05:25:43.498Z,83.99
2023-12-16T05:28:11.960Z,84.00
2023-12-16T05:30:40.124Z,84.00
2023-12-16T05:33:08.298Z,83.97
2023-12-16T05:35:36.482Z,83.90
2023-12-16T05:38:04.907Z,83.89
2023-12-16T05:40:33.095Z,83.92
2023-12-16T05:43:01.255Z,83.93
2023-12-16T05:45:29.328Z,83.91
2023-12-16T05:47:57.495Z,83.86
2023-12-16T05:50:25.736Z,83.86
2023-12-16T05:52:53.826Z,83.89
2023-12-16T05:55:21.889Z,83.88
2023-12-16T05:57:50.034Z,83.82
2023-12-16T06:00:20.008Z,83.80
2023-12-16T06:02:48.136Z,83.75
2023-12-16T06:05:16.309Z,83.76
2023-12-16T06:07:47.811Z,83.70
2023-12-16T06:10:16.204Z,83.47
2023-12-16T06:12:44.655Z,83.46
2023-12-16T06:15:13.036Z,83.33
2023-12-16T06:17:41.620Z,83.35
2023-12-16T06:20:10.863Z,83.39
2023-12-16T06:22:39.061Z,83.37
2023-12-16T06:25:08.502Z,83.21
2023-12-16T06:27:36.806Z,83.04
2023-12-16T06:30:05.902Z,82.84
2023-12-16T06:32:34.370Z,82.78
2023-12-16T06:35:02.849Z,82.70
2023-12-16T06:37:30.948Z,82.56
2023-12-16T06:40:01.802Z,82.45
2023-12-16T06:42:31.543Z,82.46
2023-12-16T06:44:59.805Z,82.49
2023-12-16T06:47:27.956Z,82.55
2023-12-16T06:49:56.100Z,82.66
2023-12-16T06:52:24.449Z,82.77
2023-12-16T06:54:52.529Z,82.86
2023-12-16T06:57:20.634Z,82.94
2023-12-16T06:59:48.736Z,83.01
2023-12-16T07:02:16.837Z,83.07
2023-12-16T07:04:45.023Z,83.13
2023-12-16T07:07:13.328Z,83.14
2023-12-16T07:09:41.437Z,83.15
2023-12-16T07:12:09.514Z,83.21
2023-12-16T07:14:39.278Z,83.23
2023-12-16T07:17:07.397Z,83.22
2023-12-16T07:19:36.475Z,83.22
2023-12-16T07:22:05.079Z,83.28
2023-12-16T07:24:33.161Z,83.29
2023-12-16T07:27:01.257Z,83.31
2023-12-16T07:29:35.654Z,83.32
2023-12-16T07:32:05.119Z,83.30
2023-12-16T07:34:33.396Z,83.30
2023-12-16T07:37:20.554Z,83.32
2023-12-16T07:39:48.742Z,83.32
2023-12-16T07:42:16.954Z,83.40
2023-12-16T07:44:45.240Z,83.41
2023-12-16T07:47:13.362Z,83.43
2023-12-16T07:49:41.446Z,83.46
2023-12-16T07:52:09.978Z,83.53
2023-12-16T07:54:38.044Z,83.54
2023-12-16T07:57:06.071Z,83.58
2023-12-16T07:59:34.128Z,83.61
2023-12-16T08:02:06.704Z,83.65
2023-12-16T08:04:34.883Z,83.65
2023-12-16T08:07:03.842Z,83.66
2023-12-16T08:09:33.460Z,83.69
2023-12-16T08:12:01.570Z,83.71
2023-12-16T08:14:30.184Z,83.72
2023-12-16T08:16:58.334Z,83.72
2023-12-16T08:19:26.567Z,83.72
2023-12-16T08:21:54.800Z,83.74
2023-12-16T08:24:22.921Z,83.76
2023-12-16T08:26:52.154Z,83.78
2023-12-16T08:29:20.581Z,83.80
2023-12-16T08:31:52.192Z,83.84
2023-12-16T08:34:21.451Z,83.86
2023-12-16T08:36:50.378Z,83.87
2023-12-16T08:39:18.661Z,83.89
2023-12-16T08:41:46.769Z,83.87
2023-12-16T08:44:14.913Z,83.82
2023-12-16T08:46:43.368Z,83.77
2023-12-16T08:49:11.565Z,83.71
2023-12-16T08:51:39.780Z,83.67
2023-12-16T08:54:08.027Z,83.62
2023-12-16T08:56:36.721Z,83.49
2023-12-16T08:59:04.738Z,83.31
2023-12-16T09:01:33.763Z,83.02
2023-12-16T09:04:02.402Z,82.88
2023-12-16T09:06:30.651Z,82.72
2023-12-16T09:09:02.601Z,82.72
2023-12-16T09:11:30.644Z,82.72
2023-12-16T09:13:58.807Z,82.73
2023-12-16T09:16:26.901Z,82.77
2023-12-16T09:18:55.009Z,82.77
2023-12-16T09:21:23.156Z,82.80
2023-12-16T09:23:51.235Z,82.79
2023-12-16T09:26:19.254Z,82.85
2023-12-16T09:28:47.394Z,82.93
2023-12-16T09:31:15.626Z,82.96
2023-12-16T09:33:43.903Z,82.99
2023-12-16T09:36:16.147Z,82.99
2023-12-16T09:38:44.486Z,82.93
2023-12-16T09:41:25.736Z,82.95
2023-12-16T09:44:04.611Z,83.01
2023-12-16T09:46:36.932Z,83.09
2023-12-16T09:49:05.207Z,83.08
2023-12-16T09:51:34.147Z,83.04
2023-12-16T09:54:02.769Z,83.02
2023-12-16T09:56:32.324Z,82.91
2023-12-16T09:59:03.199Z,82.75
2023-12-16T10:01:31.606Z,82.72
2023-12-16T10:04:00.116Z,82.79
2023-12-16T10:06:28.186Z,82.89
2023-12-16T10:08:56.255Z,83.00
2023-12-16T10:11:25.697Z,83.08
2023-12-16T10:14:02.354Z,83.17
2023-12-16T10:16:30.942Z,83.27
2023-12-16T10:19:00.437Z,83.31
2023-12-16T10:21:34.577Z,83.30
2023-12-16T10:24:03.955Z,83.31
2023-12-16T10:26:37.455Z,83.27
2023-12-16T10:29:05.761Z,83.22
2023-12-16T10:31:37.227Z,83.10
2023-12-16T10:34:05.493Z,82.98
2023-12-16T10:36:34.023Z,82.78
2023-12-16T10:39:02.235Z,82.72
2023-12-16T10:41:30.942Z,82.68
2023-12-16T10:43:59.137Z,82.56
2023-12-16T10:46:37.505Z,82.51
2023-12-16T10:49:10.051Z,82.43
2023-12-16T10:51:45.319Z,82.20
2023-12-16T10:54:33.237Z,81.80
2023-12-16T10:57:21.108Z,81.81
2023-12-16T11:00:05.381Z,81.79
2023-12-16T11:02:57.730Z,81.82
2023-12-16T11:05:35.219Z,81.79
2023-12-16T11:08:05.575Z,81.81
2023-12-16T11:10:33.966Z,81.88
2023-12-16T11:13:05.095Z,81.88
2023-12-16T11:15:35.496Z,81.75
2023-12-16T11:18:21.032Z,81.75
2023-12-16T11:20:56.623Z,81.54
2023-12-16T11:23:24.847Z,81.20
2023-12-16T11:25:57.080Z,81.23
2023-12-16T11:28:25.398Z,81.28
2023-12-16T11:30:57.996Z,81.26
2023-12-16T11:33:47.465Z,81.30
2023-12-16T11:36:16.076Z,80.91
2023-12-16T11:38:48.950Z,80.88
2023-12-16T11:41:36.062Z,80.68
2023-12-16T11:44:04.384Z,80.36
2023-12-16T11:46:38.756Z,80.26
2023-12-16T11:49:16.037Z,80.20
2023-12-16T11:51:45.537Z,80.09
2023-12-16T11:54:13.864Z,79.81
2023-12-16T11:56:43.240Z,79.53
2023-12-16T11:59:11.491Z,79.34
2023-12-16T12:01:39.739Z,79.31
2023-12-16T12:04:08.841Z,79.27
2023-12-16T12:06:38.359Z,79.11
2023-12-16T12:09:07.226Z,79.13
2023-12-16T12:11:38.858Z,79.13
2023-12-16T12:14:07.014Z,79.14
2023-12-16T12:16:35.509Z,79.34
2023-12-16T12:19:03.838Z,79.40
2023-12-16T12:21:36.612Z,79.15
2023-12-16T12:24:06.319Z,79.19
2023-12-16T12:26:34.820Z,78.98
2023-12-16T12:29:05.654Z,78.78
2023-12-16T12:31:46.933Z,79.13
2023-12-16T12:34:23.462Z,78.94
2023-12-16T12:39:42.972Z,78.32
2023-12-16T12:42:11.173Z,77.83
2023-12-16T12:44:39.443Z,77.63
2023-12-16T12:47:07.555Z,77.68
2023-12-16T12:49:36.490Z,77.76
2023-12-16T12:52:04.967Z,77.73
2023-12-16T12:54:46.100Z,77.75
2023-12-16T12:57:22.283Z,77.81
2023-12-16T13:00:00.255Z,77.70
2023-12-16T13:02:32.560Z,77.75
2023-12-16T13:05:00.883Z,77.71
2023-12-16T13:07:29.267Z,77.75
2023-12-16T13:09:57.508Z,77.68
2023-12-16T13:12:25.890Z,77.64
2023-12-16T13:14:53.980Z,77.51
2023-12-16T13:17:22.119Z,77.32
2023-12-16T13:19:50.231Z,77.34
2023-12-16T13:22:18.570Z,77.42
2023-12-16T13:24:46.961Z,77.28
2023-12-16T13:27:15.049Z,77.23
2023-12-16T13:29:43.120Z,77.27
2023-12-16T13:32:11.193Z,77.33
2023-12-16T13:34:42.163Z,77.35
2023-12-16T13:37:10.818Z,77.39
2023-12-16T13:39:41.544Z,77.30
2023-12-16T13:42:09.644Z,77.38
2023-12-16T13:44:39.495Z,77.54
2023-12-16T13:47:07.555Z,77.68
2023-12-16T13:49:35.738Z,77.48
2023-12-16T13:52:09.184Z,77.48
2023-12-16T13:54:37.531Z,77.64
2023-12-16T13:57:06.650Z,77.68
2023-12-16T13:59:35.656Z,77.79
2023-12-16T14:02:04.471Z,77.90
2023-12-16T14:04:32.552Z,77.95
2023-12-16T14:07:01.035Z,78.04
2023-12-16T14:09:29.400Z,78.13
2023-12-16T14:11:57.941Z,78.19
2023-12-16T14:14:28.724Z,78.23
2023-12-16T14:16:56.818Z,78.23
2023-12-16T14:19:25.246Z,78.28
2023-12-16T14:21:53.659Z,78.35
2023-12-16T14:24:21.798Z,78.35
2023-12-16T14:26:49.963Z,78.39
2023-12-16T14:29:18.079Z,78.43
2023-12-16T14:31:50.470Z,78.43
2023-12-16T14:34:20.480Z,78.47
2023-12-16T14:36:49.562Z,78.56
2023-12-16T14:39:18.825Z,78.65
2023-12-16T14:41:47.080Z,78.73
2023-12-16T14:44:15.110Z,78.78
2023-12-16T14:46:43.148Z,78.82
2023-12-16T14:49:12.584Z,78.89
2023-12-16T14:51:40.978Z,78.99
2023-12-16T14:54:09.166Z,79.07
2023-12-16T14:56:38.403Z,79.12
2023-12-16T14:59:06.644Z,79.18
2023-12-16T15:01:34.651Z,79.26
2023-12-16T15:04:03.321Z,79.36
2023-12-16T15:06:31.729Z,79.45
2023-12-16T15:09:00.274Z,79.53
2023-12-16T15:11:29.078Z,79.64
2023-12-16T15:13:57.098Z,79.84
2023-12-16T15:16:25.229Z,80.00
2023-12-16T15:18:53.449Z,80.19
2023-12-16T15:21:21.673Z,80.33
2023-12-16T15:23:49.716Z,80.58
2023-12-16T15:26:17.919Z,80.72
2023-12-16T15:28:48.546Z,80.92
2023-12-16T15:31:17.820Z,81.20
2023-12-16T15:33:46.064Z,81.53
2023-12-16T15:36:14.365Z,81.71
2023-12-16T15:38:42.948Z,81.80
2023-12-16T15:41:18.393Z,81.90
2023-12-16T15:43:47.176Z,82.00
2023-12-16T15:46:15.540Z,82.21
2023-12-16T15:48:43.811Z,82.42
2023-12-16T15:51:12.175Z,82.61
2023-12-16T15:53:41.777Z,82.82
2023-12-16T15:56:10.083Z,82.83
2023-12-16T15:58:38.450Z,82.99
2023-12-16T16:01:06.883Z,83.13
2023-12-16T16:03:36.651Z,83.19
2023-12-16T16:06:05.457Z,83.31
2023-12-16T16:08:33.660Z,83.40
2023-12-16T16:11:01.695Z,83.43
2023-12-16T16:13:29.795Z,83.50
2023-12-16T16:15:58.077Z,83.55
2023-12-16T16:18:26.260Z,83.61
2023-12-16T16:20:54.531Z,83.64
2023-12-16T16:23:22.608Z,83.68
2023-12-16T16:25:51.564Z,83.71
2023-12-16T16:28:19.637Z,83.73
2023-12-16T16:30:47.883Z,83.76
2023-12-16T16:33:16.206Z,83.86
2023-12-16T16:35:44.512Z,83.91
2023-12-16T16:38:12.659Z,83.89
2023-12-16T16:40:41.231Z,83.87
2023-12-16T16:43:09.289Z,83.86
2023-12-16T16:45:37.636Z,83.88
2023-12-16T16:48:06.335Z,83.93
2023-12-16T16:50:34.754Z,83.94
2023-12-16T16:53:03.145Z,84.01
2023-12-16T16:55:32.658Z,84.05
2023-12-16T16:58:00.909Z,84.17
2023-12-16T17:00:29.082Z,84.20
2023-12-16T17:02:58.042Z,84.33
2023-12-16T17:05:26.634Z,84.39
2023-12-16T17:07:55.216Z,84.50
2023-12-16T17:10:23.289Z,84.52
2023-12-16T17:12:51.398Z,84.51
2023-12-16T17:15:19.577Z,84.54
2023-12-16T17:17:47.873Z,84.56
2023-12-16T17:20:16.012Z,84.60
2023-12-16T17:22:44.407Z,84.61
2023-12-16T17:25:12.554Z,84.63
2023-12-16T17:27:41.034Z,84.59
2023-12-16T17:30:10.428Z,84.57
2023-12-16T17:32:38.907Z,84.57
2023-12-16T17:35:07.949Z,84.60
2023-12-16T17:37:36.136Z,84.62
2023-12-16T17:40:04.855Z,84.72
2023-12-16T17:42:33.883Z,84.86
2023-12-16T17:45:02.279Z,84.93
2023-12-16T17:47:30.708Z,85.02
2023-12-16T17:49:58.736Z,85.12
2023-12-16T17:52:26.853Z,85.22
2023-12-16T17:54:55.575Z,85.33
2023-12-16T17:57:23.678Z,85.39
2023-12-16T17:59:51.805Z,85.54
2023-12-16T18:02:19.842Z,85.63
2023-12-16T18:04:49.236Z,85.49
2023-12-16T18:07:17.310Z,85.33
2023-12-16T18:09:45.449Z,85.19
2023-12-16T18:12:13.607Z,85.12
2023-12-16T18:14:41.686Z,85.08
2023-12-16T18:17:10.957Z,84.98
2023-12-16T18:19:39.171Z,85.02
2023-12-16T18:22:07.927Z,84.93
2023-12-16T18:24:36.639Z,85.12
2023-12-16T18:27:05.151Z,85.26
2023-12-16T18:29:37.641Z,85.43
2023-12-16T18:32:08.888Z,85.56
2023-12-16T18:34:37.064Z,85.63
2023-12-16T18:37:05.235Z,85.76
2023-12-16T18:39:35.717Z,85.80
2023-12-16T18:42:04.316Z,85.82
2023-12-16T18:44:32.437Z,85.83
2023-12-16T18:47:00.533Z,85.85
2023-12-16T18:49:28.690Z,85.84
2023-12-16T18:51:57.119Z,85.85
2023-12-16T18:54:25.209Z,85.89
2023-12-16T18:56:53.303Z,85.92
2023-12-16T18:59:21.356Z,85.91
2023-12-16T19:01:49.354Z,85.88
2023-12-16T19:04:17.482Z,85.88
2023-12-16T19:06:45.508Z,85.89
2023-12-16T19:09:13.685Z,85.90
2023-12-16T19:11:42.710Z,85.91
2023-12-16T19:14:10.770Z,85.92
2023-12-16T19:16:38.814Z,85.92
2023-12-16T19:19:07.291Z,85.95
2023-12-16T19:21:35.478Z,85.99
2023-12-16T19:24:04.459Z,86.01
2023-12-16T19:26:32.525Z,86.04
2023-12-16T19:29:00.530Z,86.06
2023-12-16T19:31:28.576Z,86.09
2023-12-16T19:33:57.008Z,86.09
2023-12-16T19:36:26.643Z,86.11
2023-12-16T19:38:54.793Z,86.11
2023-12-16T19:41:23.327Z,86.12
2023-12-16T19:43:51.467Z,86.11
2023-12-16T19:46:19.611Z,86.12
2023-12-16T19:48:47.774Z,86.13
2023-12-16T19:51:15.963Z,86.11
2023-12-16T19:53:44.809Z,86.05
2023-12-16T19:56:13.686Z,85.98
2023-12-16T19:58:42.032Z,85.94
2023-12-16T20:01:11.277Z,85.87
2023-12-16T20:03:39.640Z,85.82
2023-12-16T20:06:08.141Z,85.77
2023-12-16T20:08:36.295Z,85.72
2023-12-16T20:11:10.496Z,85.71
2023-12-16T20:13:39.862Z,85.68
2023-12-16T20:16:08.479Z,85.57
2023-12-16T20:18:36.655Z,85.49
2023-12-16T20:21:05.306Z,85.38
2023-12-16T20:23:33.429Z,85.29
2023-12-16T20:26:01.489Z,85.26
2023-12-16T20:28:29.956Z,85.22
2023-12-16T20:30:58.585Z,85.17
2023-12-16T20:33:26.790Z,85.08
2023-12-16T20:35:55.008Z,84.97
2023-12-16T20:38:41.830Z,84.82
2023-12-16T20:41:13.394Z,84.65
2023-12-16T20:43:41.875Z,84.40
2023-12-16T20:46:10.318Z,84.30
2023-12-16T20:48:43.129Z,84.23
2023-12-16T20:51:12.651Z,84.10
2023-12-16T20:53:43.113Z,83.97
2023-12-16T20:56:12.363Z,83.94
2023-12-16T20:58:40.462Z,83.92
2023-12-16T21:01:08.839Z,83.75
2023-12-16T21:03:37.152Z,83.65
2023-12-16T21:06:05.732Z,83.59
2023-12-16T21:08:33.971Z,83.51
2023-12-16T21:11:02.190Z,83.44
2023-12-16T21:13:30.211Z,83.38
2023-12-16T21:15:58.438Z,83.30
2023-12-16T21:18:27.185Z,83.20
2023-12-16T21:20:55.446Z,83.11
2023-12-16T21:23:25.141Z,83.04
2023-12-16T21:25:53.212Z,83.05
2023-12-16T21:28:21.210Z,83.00
2023-12-16T21:30:49.215Z,83.02
2023-12-16T21:33:24.921Z,83.09
2023-12-16T21:35:53.451Z,83.14
2023-12-16T21:38:21.558Z,83.22
2023-12-16T21:40:49.998Z,83.35
2023-12-16T21:43:18.006Z,83.49
2023-12-16T21:45:46.065Z,83.65
2023-12-16T21:48:14.416Z,83.81
2023-12-16T21:50:42.734Z,84.00
2023-12-16T21:53:10.861Z,84.22
2023-12-16T21:55:38.866Z,84.39
2023-12-16T21:58:08.067Z,84.55
2023-12-16T22:00:36.634Z,84.76
2023-12-16T22:03:05.141Z,84.90
2023-12-16T22:05:33.333Z,85.09
2023-12-16T22:08:03.321Z,85.16
2023-12-16T22:10:33.013Z,85.27
2023-12-16T22:13:01.294Z,85.42
2023-12-16T22:15:29.379Z,85.57
2023-12-16T22:17:57.586Z,85.70
2023-12-16T22:20:25.818Z,85.81
2023-12-16T22:22:53.846Z,85.86
2023-12-16T22:25:21.928Z,85.96
2023-12-16T22:27:49.968Z,86.05
2023-12-16T22:30:18.151Z,86.12
2023-12-16T22:32:46.361Z,86.18
2023-12-16T22:35:14.862Z,86.22
2023-12-16T22:37:42.948Z,86.26
2023-12-16T22:40:11.235Z,86.25
2023-12-16T22:42:39.288Z,86.27
2023-12-16T22:45:09.939Z,86.30
2023-12-16T22:47:39.441Z,86.32
2023-12-16T22:50:09.098Z,86.36
2023-12-16T22:52:37.523Z,86.41
2023-12-16T22:55:09.071Z,86.43
2023-12-16T22:57:37.392Z,86.51
2023-12-16T23:00:27.184Z,86.57
2023-12-16T23:02:56.379Z,86.59
2023-12-16T23:05:24.707Z,86.61
2023-12-16T23:07:53.277Z,86.63
2023-12-16T23:10:25.821Z,86.64
2023-12-16T23:12:57.749Z,86.64
2023-12-16T23:15:25.924Z,86.63
2023-12-16T23:17:54.299Z,86.57
2023-12-16T23:20:22.686Z,86.48
2023-12-16T23:22:50.685Z,86.41
2023-12-16T23:25:18.901Z,86.38
2023-12-16T23:27:46.961Z,86.34
2023-12-16T23:30:15.182Z,86.30
2023-12-16T23:32:44.097Z,86.24
2023-12-16T23:35:12.546Z,86.22
2023-12-16T23:37:40.879Z,86.17
2023-12-16T23:40:10.028Z,86.09
2023-12-16T23:42:38.368Z,86.02
2023-12-16T23:45:07.035Z,85.97
2023-12-16T23:47:35.186Z,85.87
2023-12-16T23:50:03.409Z,85.76
2023-12-16T23:52:32.626Z,85.63
2023-12-16T23:55:00.799Z,85.48
2023-12-16T23:57:29.064Z,85.38
2023-12-16T23:59:57.258Z,85.28
